createdAt,value
2023-03-14T00:00:06.872Z,59.07
2023-03-14T00:02:43.245Z,59.07
2023-03-14T00:05:19.361Z,58.92
2023-03-14T00:07:53.743Z,59.46
2023-03-14T00:10:28.784Z,59.82
2023-03-14T00:13:03.246Z,60.05
2023-03-14T00:15:38.222Z,60.05
2023-03-14T00:18:12.844Z,60.24
2023-03-14T00:20:48.844Z,60.32
2023-03-14T00:23:23.072Z,60.18
2023-03-14T00:26:01.400Z,59.84
2023-03-14T00:28:35.741Z,59.82
2023-03-14T00:31:12.333Z,59.98
2023-03-14T00:33:48.091Z,60.12
2023-03-14T00:36:24.726Z,59.57
2023-03-14T00:38:59.125Z,59.41
2023-03-14T00:41:33.860Z,59.27
2023-03-14T00:44:08.100Z,59.44
2023-03-14T00:46:42.581Z,59.85
2023-03-14T00:49:16.888Z,60.13
2023-03-14T00:51:53.036Z,60.78
2023-03-14T00:54:27.314Z,60.66
2023-03-14T00:57:01.899Z,61.32
2023-03-14T00:59:36.237Z,61.73
2023-03-14T01:02:11.420Z,61.92
2023-03-14T01:04:45.731Z,61.93
2023-03-14T01:07:21.637Z,61.97
2023-03-14T01:09:57.011Z,62.01
2023-03-14T01:12:31.498Z,61.88
2023-03-14T01:15:06.944Z,62.17
2023-03-14T01:17:41.690Z,62.10
2023-03-14T01:20:17.647Z,62.03
2023-03-14T01:22:53.618Z,62.15
2023-03-14T01:25:28.003Z,62.52
2023-03-14T01:28:02.653Z,63.08
2023-03-14T01:30:37.539Z,63.15
2023-03-14T01:33:12.476Z,63.59
2023-03-14T01:35:47.139Z,63.68
2023-03-14T01:38:23.136Z,64.10
2023-03-14T01:41:01.938Z,63.86
2023-03-14T01:43:36.840Z,64.30
2023-03-14T01:46:38.026Z,64.65
2023-03-14T01:49:23.134Z,64.53
2023-03-14T01:52:02.983Z,63.84
2023-03-14T01:54:41.411Z,63.33
2023-03-14T01:57:19.680Z,63.27
2023-03-14T01:59:58.895Z,63.83
2023-03-14T02:02:33.628Z,63.61
2023-03-14T02:05:09.046Z,63.65
2023-03-14T02:07:51.740Z,63.34
2023-03-14T02:10:30.880Z,63.15
2023-03-14T02:13:08.094Z,63.00
2023-03-14T02:15:43.633Z,63.00
2023-03-14T02:18:19.748Z,63.00
2023-03-14T02:21:01.481Z,62.76
2023-03-14T02:23:46.177Z,62.66
2023-03-14T02:26:34.085Z,62.51
2023-03-14T02:29:10.312Z,62.43
2023-03-14T02:31:45.390Z,62.46
2023-03-14T02:34:20.061Z,62.60
2023-03-14T02:36:55.029Z,62.64
2023-03-14T02:39:38.746Z,62.47
2023-03-14T02:42:14.378Z,63.31
2023-03-14T02:44:57.001Z,63.92
2023-03-14T02:47:32.868Z,64.22
2023-03-14T02:50:15.119Z,64.37
2023-03-14T02:52:49.516Z,64.61
2023-03-14T02:55:26.782Z,64.94
2023-03-14T02:58:01.646Z,64.90
2023-03-14T03:00:38.797Z,64.86
2023-03-14T03:03:14.812Z,64.74
2023-03-14T03:05:51.533Z,64.76
2023-03-14T03:08:28.339Z,64.79
2023-03-14T03:11:04.054Z,65.01
2023-03-14T03:13:39.199Z,64.65
2023-03-14T03:16:16.384Z,64.94
2023-03-14T03:18:50.765Z,64.95
2023-03-14T03:21:25.529Z,65.19
2023-03-14T03:23:59.730Z,65.39
2023-03-14T03:26:35.669Z,65.78
2023-03-14T03:29:12.041Z,65.89
2023-03-14T03:31:50.440Z,66.01
2023-03-14T03:34:30.805Z,66.04
2023-03-14T03:37:05.498Z,65.59
2023-03-14T03:39:40.916Z,65.63
2023-03-14T03:42:15.713Z,65.77
2023-03-14T03:44:50.954Z,65.43
2023-03-14T03:47:27.046Z,65.26
2023-03-14T03:50:02.759Z,64.92
2023-03-14T03:52:38.047Z,64.70
2023-03-14T03:55:12.421Z,64.45
2023-03-14T03:57:46.963Z,63.90
2023-03-14T04:00:22.246Z,63.85
2023-03-14T04:02:58.446Z,63.81
2023-03-14T04:05:33.145Z,63.50
2023-03-14T04:08:08.357Z,63.58
2023-03-14T04:10:43.021Z,63.48
2023-03-14T04:13:17.754Z,63.62
2023-03-14T04:15:53.012Z,63.77
2023-03-14T04:18:31.442Z,64.08
2023-03-14T04:21:06.133Z,64.37
2023-03-14T04:23:41.953Z,64.18
2023-03-14T04:26:16.170Z,63.89
2023-03-14T04:28:51.037Z,64.14
2023-03-14T04:31:25.838Z,64.33
2023-03-14T04:34:01.839Z,64.16
2023-03-14T04:36:40.149Z,64.08
2023-03-14T04:39:16.380Z,63.86
2023-03-14T04:41:53.496Z,64.11
2023-03-14T04:44:28.279Z,64.05
2023-03-14T04:47:02.796Z,64.19
2023-03-14T04:49:39.205Z,63.98
2023-03-14T04:52:14.295Z,64.39
2023-03-14T04:54:49.291Z,64.59
2023-03-14T04:57:24.522Z,64.13
2023-03-14T04:59:59.717Z,64.13
2023-03-14T05:02:35.374Z,64.04
2023-03-14T05:05:11.537Z,87.66
2023-03-14T05:07:46.266Z,72.11
2023-03-14T05:10:22.476Z,63.24
2023-03-14T05:12:57.289Z,63.33
2023-03-14T05:15:32.319Z,63.72
2023-03-14T05:18:07.462Z,63.80
2023-03-14T05:20:44.221Z,63.74
2023-03-14T05:23:19.932Z,63.61
2023-03-14T05:25:55.047Z,63.83
2023-03-14T05:28:29.970Z,63.58
2023-03-14T05:31:09.129Z,63.55
2023-03-14T05:33:43.665Z,63.64
2023-03-14T05:36:22.031Z,63.31
2023-03-14T05:38:57.122Z,63.55
2023-03-14T05:41:31.895Z,68.06
2023-03-14T05:44:06.597Z,86.76
2023-03-14T05:46:42.266Z,81.54
2023-03-14T05:49:16.844Z,62.80
2023-03-14T05:51:53.541Z,61.48
2023-03-14T05:54:28.148Z,61.89
2023-03-14T05:57:02.674Z,62.19
2023-03-14T05:59:37.160Z,62.27
2023-03-14T06:02:11.943Z,62.65
2023-03-14T06:04:47.795Z,61.99
2023-03-14T06:07:23.566Z,62.61
2023-03-14T06:09:59.538Z,79.49
2023-03-14T06:12:34.258Z,68.54
2023-03-14T06:15:10.107Z,68.62
2023-03-14T06:17:44.487Z,80.34
2023-03-14T06:20:24.433Z,60.76
2023-03-14T06:23:00.101Z,59.45
2023-03-14T06:25:35.796Z,59.25
2023-03-14T06:28:10.153Z,59.20
2023-03-14T06:30:45.443Z,58.65
2023-03-14T06:33:20.282Z,58.57
2023-03-14T06:35:55.691Z,57.79
2023-03-14T06:38:31.592Z,57.50
2023-03-14T06:41:07.099Z,57.62
2023-03-14T06:43:42.114Z,58.12
2023-03-14T06:46:17.676Z,58.47
2023-03-14T06:48:52.310Z,58.21
2023-03-14T06:51:27.106Z,58.32
2023-03-14T06:54:02.995Z,57.83
2023-03-14T06:56:37.555Z,56.77
2023-03-14T06:59:12.304Z,56.48
2023-03-14T07:02:59.488Z,56.03
2023-03-14T07:05:35.477Z,56.03
2023-03-14T07:08:10.232Z,56.85
2023-03-14T07:10:44.993Z,56.82
2023-03-14T07:13:19.371Z,63.49
2023-03-14T07:15:54.747Z,55.33
2023-03-14T07:18:30.568Z,53.95
2023-03-14T07:21:05.525Z,53.93
2023-03-14T07:23:40.356Z,54.06
2023-03-14T07:26:15.158Z,53.43
2023-03-14T07:28:51.568Z,53.15
2023-03-14T07:31:26.523Z,53.00
2023-03-14T07:34:02.453Z,52.35
2023-03-14T07:36:37.463Z,52.27
2023-03-14T07:39:11.930Z,51.19
2023-03-14T07:41:46.866Z,51.01
2023-03-14T07:44:26.506Z,48.98
2023-03-14T07:47:01.109Z,47.98
2023-03-14T07:49:36.892Z,47.78
2023-03-14T07:52:11.411Z,47.60
2023-03-14T07:54:45.646Z,48.17
2023-03-14T07:57:20.247Z,48.41
2023-03-14T07:59:54.623Z,46.87
2023-03-14T08:02:29.243Z,47.37
2023-03-14T08:05:05.553Z,45.91
2023-03-14T08:07:39.831Z,45.82
2023-03-14T08:10:23.141Z,45.69
2023-03-14T08:12:58.836Z,46.75
2023-03-14T08:15:33.653Z,45.25
2023-03-14T08:18:08.687Z,45.83
2023-03-14T08:20:44.938Z,45.45
2023-03-14T08:23:19.160Z,44.35
2023-03-14T08:25:54.297Z,44.61
2023-03-14T08:28:31.711Z,43.60
2023-03-14T08:31:07.116Z,41.49
2023-03-14T08:33:41.556Z,41.08
2023-03-14T08:36:17.620Z,40.95
2023-03-14T08:38:51.830Z,41.44
2023-03-14T08:41:26.807Z,40.04
2023-03-14T08:44:01.582Z,39.97
2023-03-14T08:46:37.075Z,40.37
2023-03-14T08:49:11.805Z,40.06
2023-03-14T08:51:47.730Z,40.59
2023-03-14T08:54:22.009Z,40.66
2023-03-14T08:56:56.586Z,41.38
2023-03-14T08:59:31.121Z,39.00
2023-03-14T09:02:06.287Z,39.83
2023-03-14T09:04:40.833Z,38.52
2023-03-14T09:07:16.832Z,38.93
2023-03-14T09:09:51.137Z,38.08
2023-03-14T09:12:25.640Z,38.63
2023-03-14T09:14:59.930Z,38.57
2023-03-14T09:17:34.418Z,38.60
2023-03-14T09:20:11.196Z,40.04
2023-03-14T09:22:50.368Z,38.10
2023-03-14T09:25:24.748Z,39.08
2023-03-14T09:27:59.597Z,38.62
2023-03-14T09:30:34.016Z,39.35
2023-03-14T09:33:08.559Z,39.94
2023-03-14T09:35:43.081Z,39.18
2023-03-14T09:38:21.410Z,38.78
2023-03-14T09:40:56.089Z,39.57
2023-03-14T09:43:34.095Z,40.54
2023-03-14T09:46:12.543Z,39.21
2023-03-14T09:48:48.005Z,39.17
2023-03-14T09:51:24.684Z,39.38
2023-03-14T09:54:01.614Z,39.36
2023-03-14T09:56:36.212Z,38.64
2023-03-14T09:59:15.927Z,38.69
2023-03-14T10:01:52.454Z,38.85
2023-03-14T10:04:28.722Z,39.83
2023-03-14T10:07:04.753Z,38.43
2023-03-14T10:09:40.925Z,37.50
2023-03-14T10:12:16.030Z,38.80
2023-03-14T10:14:52.443Z,37.07
2023-03-14T10:17:26.725Z,36.99
2023-03-14T10:20:07.030Z,36.75
2023-03-14T10:22:42.657Z,37.91
2023-03-14T10:25:29.405Z,36.28
2023-03-14T10:28:06.481Z,37.96
2023-03-14T10:30:46.093Z,37.05
2023-03-14T10:33:24.149Z,37.90
2023-03-14T10:36:01.524Z,37.64
2023-03-14T10:38:38.287Z,37.39
2023-03-14T10:41:21.569Z,39.44
2023-03-14T10:43:59.036Z,36.29
2023-03-14T10:46:35.269Z,35.84
2023-03-14T10:49:31.450Z,36.10
2023-03-14T10:52:30.863Z,35.38
2023-03-14T10:55:16.300Z,36.83
2023-03-14T10:57:52.591Z,35.98
2023-03-14T11:00:27.092Z,35.77
2023-03-14T11:03:10.912Z,34.84
2023-03-14T11:05:51.873Z,34.82
2023-03-14T11:08:33.817Z,34.10
2023-03-14T11:11:17.816Z,34.16
2023-03-14T11:14:04.468Z,33.15
2023-03-14T11:16:50.585Z,34.30
2023-03-14T11:19:35.854Z,32.97
2023-03-14T11:22:22.568Z,34.06
2023-03-14T11:25:17.691Z,33.95
2023-03-14T11:28:00.386Z,33.54
2023-03-14T11:30:41.599Z,34.38
2023-03-14T11:33:17.843Z,33.56
2023-03-14T11:35:57.674Z,33.52
2023-03-14T11:38:36.227Z,33.65
2023-03-14T11:41:16.435Z,33.17
2023-03-14T11:43:55.505Z,32.85
2023-03-14T11:46:36.741Z,33.16
2023-03-14T11:49:28.222Z,32.55
2023-03-14T11:52:08.299Z,32.37
2023-03-14T11:54:50.737Z,32.23
2023-03-14T11:57:26.241Z,32.90
2023-03-14T12:00:07.060Z,33.50
2023-03-14T12:02:55.779Z,32.01
2023-03-14T12:05:44.650Z,32.93
2023-03-14T12:08:36.957Z,33.51
2023-03-14T12:11:21.341Z,34.52
2023-03-14T12:13:56.437Z,34.62
2023-03-14T12:16:41.763Z,33.91
2023-03-14T12:19:37.323Z,34.03
2023-03-14T12:22:30.881Z,33.29
2023-03-14T12:25:15.735Z,33.79
2023-03-14T12:28:05.652Z,33.44
2023-03-14T12:30:41.642Z,33.90
2023-03-14T12:33:29.171Z,33.57
2023-03-14T12:36:13.200Z,32.79
2023-03-14T12:38:59.272Z,33.11
2023-03-14T12:41:41.258Z,33.63
2023-03-14T12:44:42.694Z,32.96
2023-03-14T12:48:02.166Z,33.45
2023-03-14T12:50:48.402Z,33.52
2023-03-14T12:54:08.974Z,33.54
2023-03-14T12:56:54.632Z,35.68
2023-03-14T12:59:33.305Z,34.25
2023-03-14T13:02:30.632Z,35.19
2023-03-14T13:05:12.390Z,35.54
2023-03-14T13:08:07.090Z,35.99
2023-03-14T13:10:47.504Z,36.43
2023-03-14T13:13:23.974Z,35.67
2023-03-14T13:16:01.368Z,36.38
2023-03-14T13:18:38.662Z,36.11
2023-03-14T13:21:17.755Z,36.65
2023-03-14T13:24:00.909Z,36.08
2023-03-14T13:26:38.611Z,35.40
2023-03-14T13:29:19.415Z,35.20
2023-03-14T13:31:57.676Z,35.81
2023-03-14T13:34:34.655Z,35.58
2023-03-14T13:37:18.421Z,35.76
2023-03-14T13:39:54.635Z,36.40
2023-03-14T13:42:32.955Z,37.44
2023-03-14T13:45:08.733Z,35.51
2023-03-14T13:47:44.085Z,35.47
2023-03-14T13:50:20.805Z,35.66
2023-03-14T13:52:59.123Z,35.68
2023-03-14T13:55:33.769Z,34.85
2023-03-14T13:58:23.072Z,34.13
2023-03-14T14:01:13.368Z,34.29
2023-03-14T14:03:52.140Z,35.41
2023-03-14T14:06:32.178Z,35.90
2023-03-14T14:09:14.493Z,35.56
2023-03-14T14:12:11.387Z,33.20
2023-03-14T14:14:55.830Z,32.77
2023-03-14T14:17:35.418Z,32.06
2023-03-14T14:20:18.954Z,32.05
2023-03-14T14:22:54.343Z,32.81
2023-03-14T14:25:30.421Z,33.22
2023-03-14T14:28:17.956Z,33.25
2023-03-14T14:31:05.160Z,33.12
2023-03-14T14:33:44.021Z,33.04
2023-03-14T14:36:23.157Z,32.77
2023-03-14T14:39:01.324Z,33.26
2023-03-14T14:41:41.820Z,33.36
2023-03-14T14:44:19.195Z,32.35
2023-03-14T14:46:57.087Z,33.09
2023-03-14T14:49:33.141Z,32.38
2023-03-14T14:52:14.939Z,33.29
2023-03-14T14:54:55.650Z,32.99
2023-03-14T14:57:37.168Z,33.58
2023-03-14T15:03:02.413Z,32.89
2023-03-14T15:05:38.122Z,32.89
2023-03-14T15:08:12.994Z,33.96
2023-03-14T15:10:47.684Z,34.66
2023-03-14T15:13:22.097Z,33.83
2023-03-14T15:15:57.297Z,34.44
2023-03-14T15:18:33.140Z,34.00
2023-03-14T15:21:08.024Z,34.27
2023-03-14T15:23:42.363Z,34.22
2023-03-14T15:26:19.846Z,34.72
2023-03-14T15:28:54.438Z,35.01
2023-03-14T15:31:29.231Z,36.19
2023-03-14T15:34:04.842Z,37.55
2023-03-14T15:36:41.375Z,38.42
2023-03-14T15:39:15.766Z,39.25
2023-03-14T15:41:50.515Z,39.76
2023-03-14T15:44:25.048Z,40.47
2023-03-14T15:46:59.699Z,41.23
2023-03-14T15:49:35.824Z,42.71
2023-03-14T15:52:10.982Z,44.15
2023-03-14T15:54:45.315Z,45.08
2023-03-14T15:57:19.802Z,45.90
2023-03-14T15:59:57.101Z,46.78
2023-03-14T16:02:31.611Z,47.63
2023-03-14T16:05:08.236Z,48.59
2023-03-14T16:07:42.794Z,50.66
2023-03-14T16:10:17.934Z,52.37
2023-03-14T16:12:52.316Z,54.31
2023-03-14T16:15:27.848Z,55.21
2023-03-14T16:18:09.128Z,55.95
2023-03-14T16:20:56.532Z,56.73
2023-03-14T16:23:31.571Z,58.06
2023-03-14T16:26:12.223Z,60.36
2023-03-14T16:28:47.527Z,61.64
2023-03-14T16:31:23.893Z,64.46
2023-03-14T16:34:03.707Z,67.29
2023-03-14T16:36:40.052Z,69.34
2023-03-14T16:39:14.522Z,70.61
2023-03-14T16:41:49.482Z,70.51
2023-03-14T16:44:23.821Z,71.83
2023-03-14T16:46:58.316Z,71.79
2023-03-14T16:49:32.899Z,71.96
2023-03-14T16:52:10.585Z,71.87
2023-03-14T16:54:44.742Z,71.86
2023-03-14T16:57:19.419Z,71.69
2023-03-14T16:59:55.023Z,71.50
2023-03-14T17:02:29.815Z,70.98
2023-03-14T17:05:04.302Z,70.96
2023-03-14T17:07:40.410Z,70.62
2023-03-14T17:10:15.647Z,71.02
2023-03-14T17:12:52.162Z,71.45
2023-03-14T17:15:26.543Z,71.88
2023-03-14T17:18:03.124Z,72.65
2023-03-14T17:20:37.447Z,72.50
2023-03-14T17:23:13.711Z,72.93
2023-03-14T17:25:50.426Z,73.79
2023-03-14T17:28:27.395Z,74.27
2023-03-14T17:31:08.631Z,73.43
2023-03-14T17:33:44.488Z,77.71
2023-03-14T17:36:19.439Z,71.83
2023-03-14T17:38:57.518Z,72.68
2023-03-14T17:41:32.696Z,73.36
2023-03-14T17:44:07.725Z,75.69
2023-03-14T17:46:41.987Z,75.81
2023-03-14T17:49:17.292Z,76.91
2023-03-14T17:51:52.069Z,79.63
2023-03-14T17:54:28.210Z,80.64
2023-03-14T17:57:02.597Z,81.25
2023-03-14T17:59:37.455Z,83.53
2023-03-14T18:02:12.559Z,83.13
2023-03-14T18:04:47.823Z,85.33
2023-03-14T18:07:22.782Z,86.31
2023-03-14T18:09:59.816Z,86.90
2023-03-14T18:12:34.527Z,85.24
2023-03-14T18:15:10.337Z,84.86
2023-03-14T18:17:44.988Z,83.50
2023-03-14T18:20:20.063Z,83.71
2023-03-14T18:22:55.727Z,84.33
2023-03-14T18:25:32.132Z,84.81
2023-03-14T18:28:06.736Z,84.16
2023-03-14T18:30:41.702Z,84.38
2023-03-14T18:33:16.510Z,84.78
2023-03-14T18:35:52.629Z,84.18
2023-03-14T18:38:27.984Z,82.77
2023-03-14T18:41:08.044Z,81.66
2023-03-14T18:43:44.167Z,80.93
2023-03-14T18:46:20.779Z,80.93
2023-03-14T18:48:57.483Z,81.10
2023-03-14T18:51:36.551Z,80.16
2023-03-14T18:54:12.665Z,80.20
2023-03-14T18:56:49.082Z,80.11
2023-03-14T18:59:23.433Z,80.20
2023-03-14T19:01:58.168Z,80.31
2023-03-14T19:04:32.940Z,80.53
2023-03-14T19:07:07.841Z,80.18
2023-03-14T19:09:43.085Z,81.40
2023-03-14T19:12:19.685Z,81.04
2023-03-14T19:14:54.280Z,81.67
2023-03-14T19:17:28.928Z,82.36
2023-03-14T19:20:04.038Z,82.56
2023-03-14T19:22:39.224Z,81.12
2023-03-14T19:25:13.778Z,79.01
2023-03-14T19:27:50.494Z,78.48
2023-03-14T19:30:25.231Z,78.62
2023-03-14T19:33:00.703Z,78.44
2023-03-14T19:35:37.445Z,79.40
2023-03-14T19:38:13.275Z,80.34
2023-03-14T19:40:50.523Z,80.71
2023-03-14T19:43:27.616Z,81.84
2023-03-14T19:46:02.391Z,84.13
2023-03-14T19:48:37.679Z,83.29
2023-03-14T19:51:14.310Z,82.88
2023-03-14T19:53:50.929Z,82.57
2023-03-14T19:56:25.245Z,82.65
2023-03-14T19:59:03.244Z,83.48
2023-03-14T20:01:38.938Z,84.26
2023-03-14T20:04:15.092Z,85.33
2023-03-14T20:06:49.644Z,86.03
2023-03-14T20:09:24.713Z,85.24
2023-03-14T20:11:59.325Z,85.69
2023-03-14T20:14:35.992Z,85.82
2023-03-14T20:17:10.811Z,85.62
2023-03-14T20:19:48.402Z,84.03
2023-03-14T20:22:22.947Z,82.67
2023-03-14T20:24:59.034Z,75.24
2023-03-14T20:27:34.522Z,80.13
2023-03-14T20:30:15.209Z,82.41
2023-03-14T20:32:52.100Z,84.38
2023-03-14T20:35:27.054Z,84.76
2023-03-14T20:38:02.413Z,86.54
2023-03-14T20:40:37.832Z,82.51
2023-03-14T20:43:12.286Z,84.18
2023-03-14T20:45:54.912Z,83.86
2023-03-14T20:48:32.681Z,83.28
2023-03-14T20:51:07.665Z,83.51
2023-03-14T20:53:42.555Z,84.58
2023-03-14T20:56:17.148Z,85.68
2023-03-14T20:58:51.465Z,85.64
2023-03-14T21:04:20.023Z,86.85
2023-03-14T21:06:55.573Z,87.16
2023-03-14T21:09:29.825Z,86.48
2023-03-14T21:12:05.214Z,95.39
2023-03-14T21:14:39.713Z,87.69
2023-03-14T21:17:15.826Z,89.26
2023-03-14T21:19:58.162Z,83.54
2023-03-14T21:22:32.941Z,82.58
2023-03-14T21:25:08.858Z,84.61
2023-03-14T21:27:43.588Z,86.04
2023-03-14T21:30:18.576Z,86.55
2023-03-14T21:32:54.858Z,88.29
2023-03-14T21:35:29.093Z,88.63
2023-03-14T21:38:03.894Z,89.74
2023-03-14T21:40:38.842Z,90.63
2023-03-14T21:43:15.707Z,90.31
2023-03-14T21:45:50.391Z,90.79
2023-03-14T21:48:26.947Z,88.52
2023-03-14T21:51:05.433Z,90.00
2023-03-14T21:53:40.884Z,90.07
2023-03-14T21:56:15.122Z,88.81
2023-03-14T21:58:49.786Z,88.94
2023-03-14T22:01:24.020Z,89.66
2023-03-14T22:04:00.456Z,90.49
2023-03-14T22:06:35.126Z,90.09
2023-03-14T22:09:10.390Z,90.85
2023-03-14T22:11:45.004Z,89.70
2023-03-14T22:14:19.644Z,90.97
2023-03-14T22:16:54.327Z,91.11
2023-03-14T22:19:31.223Z,91.26
2023-03-14T22:22:05.570Z,90.12
2023-03-14T22:24:40.120Z,88.18
2023-03-14T22:27:14.315Z,88.23
2023-03-14T22:29:49.664Z,84.87
2023-03-14T22:32:24.287Z,84.04
2023-03-14T22:35:00.146Z,82.74
2023-03-14T22:37:34.388Z,81.88
2023-03-14T22:40:12.623Z,80.66
2023-03-14T22:42:48.299Z,80.92
2023-03-14T22:45:23.046Z,81.37
2023-03-14T22:47:57.232Z,81.00
2023-03-14T23:02:55.760Z,75.10
2023-03-14T23:05:30.801Z,75.10
2023-03-14T23:08:05.151Z,73.48
2023-03-14T23:10:40.280Z,74.55
2023-03-14T23:13:15.397Z,74.03
2023-03-14T23:15:50.556Z,74.27
2023-03-14T23:18:27.787Z,73.61
2023-03-14T23:21:10.271Z,73.27
2023-03-14T23:23:48.717Z,70.74
2023-03-14T23:26:25.240Z,70.93
2023-03-14T23:28:59.432Z,70.31
2023-03-14T23:31:34.142Z,70.16
2023-03-14T23:34:10.958Z,66.61
2023-03-14T23:36:47.761Z,66.40
2023-03-14T23:39:22.250Z,63.85
2023-03-14T23:41:56.757Z,64.38
2023-03-14T23:44:31.322Z,63.44
2023-03-14T23:47:08.816Z,63.64
2023-03-14T23:49:45.483Z,62.61
2023-03-14T23:52:20.414Z,62.54
2023-03-14T23:54:54.815Z,63.06
2023-03-14T23:57:29.246Z,62.57
